Pittsburgh, Pennsylvania
Traffic Map
Current Weather Conditions
Pittsburgh, Pennsylvania
Overcast Haze
Overcast
12°
Feels Like: 12°
Wind Chill: 12° Ceiling: 3900
Heat Index: 12° Visibility: 5mi
Dew Point: 10° Wind: 6mph
Humidity: 89% Direction: 160° (SSE)
Pressure: 30.05in Gusts: 0mph
Raw Report DataKAGC 301053Z 16005KT 5SM BR BKN039 BKN048 OVC060 12/10 A3005 RMK AO2 SLP179 T01170100 $
Traffic Incident Summary
Active as of:
Severity:
Category:
InformationThere was an issue retrieving the traffic information for this location. Please try a different location or try again shortly.
Advertisements
Track Severe Weather on mobile